Time;durP1;ratioP1;P1;durP2;ratioP2;P2;SDS_P1;SDS_P2;PMS_P1;PMS_P2;Temp;Humidity;BMP_temperature;BMP_pressure;BME280_temperature;BME280_humidity;BME280_pressure;Samples;Min_cycle;Max_cycle;Signal;HPM_P1;HPM_P2
2023/07/23 00:00:17;;;;;;;9.63;4.10;;;;;;;23.63;62.81;93971.72;5064402;28;20040;-83
2023/07/23 00:02:42;;;;;;;18.48;5.43;;;;;;;23.59;63.09;93969.00;5064414;28;20025;-83
2023/07/23 00:05:08;;;;;;;17.92;4.20;;;;;;;23.58;63.94;93975.59;5063989;28;20230;-84
2023/07/23 00:07:33;;;;;;;10.82;4.20;;;;;;;23.57;64.24;93976.00;5063917;28;20237;-84
2023/07/23 00:09:59;;;;;;;21.60;4.95;;;;;;;23.47;64.76;93965.91;5063199;28;20029;-84
2023/07/23 00:12:24;;;;;;;13.75;4.72;;;;;;;23.39;65.29;93976.81;5063125;28;20331;-84
2023/07/23 00:14:50;;;;;;;14.43;4.85;;;;;;;23.44;65.19;93986.53;5062277;28;20019;-84
2023/07/23 00:17:15;;;;;;;8.88;3.72;;;;;;;23.34;65.37;93981.88;5063870;28;20315;-84
2023/07/23 00:19:41;;;;;;;11.13;4.75;;;;;;;23.32;65.69;93986.94;5064102;28;20024;-85
2023/07/23 00:22:06;;;;;;;12.50;4.22;;;;;;;23.26;65.89;93997.44;5064204;28;20067;-85
2023/07/23 00:24:31;;;;;;;13.30;4.03;;;;;;;23.19;66.44;93983.84;5063812;28;20020;-86
2023/07/23 00:26:57;;;;;;;17.45;4.65;;;;;;;23.21;67.76;93995.13;5063804;28;20025;-85
2023/07/23 00:29:22;;;;;;;12.85;4.65;;;;;;;23.09;68.15;93992.78;5064053;28;20057;-85
2023/07/23 00:31:48;;;;;;;16.08;5.32;;;;;;;23.09;68.48;93999.00;5063575;28;20282;-85
2023/07/23 00:34:13;;;;;;;14.70;4.28;;;;;;;23.05;68.44;94000.94;5063766;28;20075;-85
2023/07/23 00:36:39;;;;;;;16.40;4.47;;;;;;;22.99;69.04;94008.69;5062541;28;20057;-85
2023/07/23 00:39:05;;;;;;;13.70;4.40;;;;;;;23.03;69.13;94012.19;5063676;28;20201;-85
2023/07/23 00:41:31;;;;;;;16.90;4.93;;;;;;;22.99;68.83;94019.56;5063630;28;20040;-86
2023/07/23 00:43:56;;;;;;;13.77;4.65;;;;;;;22.92;69.10;94014.13;5063740;28;20043;-84
2023/07/23 00:46:22;;;;;;;14.90;4.90;;;;;;;22.90;68.99;94013.75;5063243;28;20035;-82
2023/07/23 00:48:48;;;;;;;13.93;5.15;;;;;;;22.84;69.34;94018.78;5063362;28;20025;-82
2023/07/23 00:51:14;;;;;;;15.27;4.35;;;;;;;22.77;69.28;94009.84;5063356;28;20091;-82
2023/07/23 00:53:39;;;;;;;15.00;4.80;;;;;;;22.71;69.57;94004.00;5062892;28;20315;-83
2023/07/23 00:56:05;;;;;;;17.45;4.78;;;;;;;22.77;69.64;94009.84;5063213;28;20316;-82
2023/07/23 00:58:31;;;;;;;17.15;4.57;;;;;;;22.75;69.50;94018.38;5063157;28;20025;-82
2023/07/23 01:00:56;;;;;;;9.85;4.70;;;;;;;22.66;69.90;94015.28;5063322;28;20021;-82
2023/07/23 01:03:22;;;;;;;18.40;5.65;;;;;;;22.64;70.33;94018.38;5062093;28;20029;-83
2023/07/23 01:05:49;;;;;;;14.55;4.85;;;;;;;22.69;69.98;94024.56;5063049;28;20021;-82
2023/07/23 01:08:15;;;;;;;17.00;6.07;;;;;;;22.66;69.97;94025.38;5062904;28;20021;-83
2023/07/23 01:10:41;;;;;;;17.45;5.53;;;;;;;22.66;69.98;94042.44;5063287;28;20216;-83
2023/07/23 01:13:07;;;;;;;15.95;4.95;;;;;;;22.66;70.37;94025.38;5063021;28;20025;-83
2023/07/23 01:15:33;;;;;;;19.75;6.32;;;;;;;22.59;70.72;94031.53;5063412;28;20017;-83
2023/07/23 01:18:01;;;;;;;12.85;5.40;;;;;;;22.56;71.01;94040.47;5062003;28;20048;-84
2023/07/23 01:20:27;;;;;;;13.82;5.03;;;;;;;22.59;70.89;94043.22;5062926;28;20020;-84
2023/07/23 01:22:52;;;;;;;19.17;5.40;;;;;;;22.57;71.33;94045.53;5063110;28;20258;-83
2023/07/23 01:25:18;;;;;;;15.82;4.90;;;;;;;22.61;71.21;94040.88;5062817;28;20031;-84
2023/07/23 01:27:43;;;;;;;16.17;5.03;;;;;;;22.59;71.54;94045.13;5063017;28;20048;-83
2023/07/23 01:30:10;;;;;;;17.33;4.88;;;;;;;22.57;71.91;94045.53;5063084;28;20021;-84
2023/07/23 01:32:37;;;;;;;14.77;5.15;;;;;;;22.59;72.04;94053.28;5063050;28;20021;-84
2023/07/23 01:35:14;;;;;;;15.23;4.75;;;;;;;22.60;71.90;94055.63;5062934;28;20067;-84
2023/07/23 01:37:40;;;;;;;16.83;5.70;;;;;;;22.62;71.59;94063.38;5063068;28;20055;-84
2023/07/23 01:40:06;;;;;;;15.40;4.78;;;;;;;22.62;71.28;94061.44;5062815;28;20031;-84
2023/07/23 01:42:32;;;;;;;16.35;4.80;;;;;;;22.67;71.09;94067.66;5063101;28;20047;-84
2023/07/23 01:45:02;;;;;;;16.77;5.38;;;;;;;22.65;70.64;94081.63;5062946;28;20032;-84
2023/07/23 01:47:28;;;;;;;14.98;5.03;;;;;;;22.63;70.47;94082.03;5062907;28;20021;-84
2023/07/23 01:49:53;;;;;;;15.48;6.18;;;;;;;22.66;70.20;94085.13;5062903;28;20021;-84
2023/07/23 01:52:19;;;;;;;22.10;5.95;;;;;;;22.60;69.66;94096.34;5062808;28;20092;-84
2023/07/23 01:54:44;;;;;;;15.60;5.25;;;;;;;22.51;70.07;94095.16;5062644;28;20083;-84
2023/07/23 01:57:10;;;;;;;13.70;5.57;;;;;;;22.46;69.57;94112.59;5062846;28;20020;-84
2023/07/23 01:59:35;;;;;;;16.55;4.22;;;;;;;22.42;69.71;94117.25;5063545;28;20025;-84
2023/07/23 02:02:00;;;;;;;10.43;4.65;;;;;;;22.38;68.70;94109.09;5066555;28;20027;-84
2023/07/23 02:04:26;;;;;;;18.52;5.57;;;;;;;22.27;68.40;94121.06;5066713;28;20084;-84
2023/07/23 02:06:51;;;;;;;15.00;5.60;;;;;;;22.19;68.36;94136.53;5066612;28;20037;-84
2023/07/23 02:09:17;;;;;;;19.25;4.70;;;;;;;22.12;68.94;94139.94;5065292;28;20033;-85
2023/07/23 02:11:42;;;;;;;17.95;4.68;;;;;;;22.07;69.23;94153.13;5066704;28;20021;-84
2023/07/23 02:14:08;;;;;;;16.95;4.85;;;;;;;21.96;67.00;94153.84;5066522;28;20045;-83
2023/07/23 02:16:34;;;;;;;13.18;4.53;;;;;;;21.94;67.35;94156.16;5066274;28;20013;-84
2023/07/23 02:18:59;;;;;;;20.65;7.07;;;;;;;21.82;66.38;94159.94;5066202;28;20028;-83
2023/07/23 02:21:25;;;;;;;25.90;4.78;;;;;;;21.86;65.99;94142.91;5066711;28;20028;-84
2023/07/23 02:23:51;;;;;;;25.77;4.90;;;;;;;21.80;67.09;94147.94;5065085;28;20121;-84
2023/07/23 02:26:17;;;;;;;14.90;4.97;;;;;;;21.91;67.73;94146.03;5066224;28;20063;-84
2023/07/23 02:28:43;;;;;;;18.42;5.07;;;;;;;21.98;68.01;94146.09;5066155;28;20021;-84
2023/07/23 02:31:10;;;;;;;20.63;5.60;;;;;;;22.07;68.45;94142.28;5064824;28;20031;-82
2023/07/23 02:33:35;;;;;;;19.88;5.45;;;;;;;22.24;67.93;94139.66;5065764;28;20024;-82
2023/07/23 02:36:01;;;;;;;13.07;5.18;;;;;;;22.38;67.45;94141.66;5065867;28;20100;-84
2023/07/23 02:38:26;;;;;;;23.05;6.43;;;;;;;22.47;66.77;94137.81;5065986;28;20032;-83
2023/07/23 02:40:56;;;;;;;17.90;5.80;;;;;;;22.56;66.54;94151.84;5065945;28;20021;-83
2023/07/23 02:43:21;;;;;;;18.13;5.60;;;;;;;22.56;66.49;94147.19;5066102;28;20327;-84
2023/07/23 02:45:47;;;;;;;22.02;5.63;;;;;;;22.59;66.66;94138.28;5065642;28;20036;-84
2023/07/23 02:48:12;;;;;;;17.75;5.18;;;;;;;22.65;66.74;94146.81;5065859;28;20020;-84
2023/07/23 02:50:39;;;;;;;17.33;6.20;;;;;;;22.65;67.11;94149.53;5065698;28;20028;-84
2023/07/23 02:53:05;;;;;;;17.77;5.53;;;;;;;22.61;67.58;94156.88;5065713;28;20059;-84
2023/07/23 02:55:31;;;;;;;12.35;5.75;;;;;;;22.63;67.59;94168.94;5065698;28;20315;-84
2023/07/23 02:57:57;;;;;;;19.80;6.47;;;;;;;22.62;67.91;94174.75;5065756;28;20032;-82
2023/07/23 03:00:22;;;;;;;23.85;6.82;;;;;;;22.63;68.11;94165.44;5065707;28;20027;-83
2023/07/23 03:02:48;;;;;;;20.90;7.57;;;;;;;22.58;68.20;94177.44;5065613;28;20032;-83
2023/07/23 03:05:13;;;;;;;18.30;7.75;;;;;;;22.55;68.69;94169.28;5065579;28;20021;-83
2023/07/23 03:07:39;;;;;;;17.88;6.97;;;;;;;22.53;68.78;94168.88;5065544;28;20029;-83
2023/07/23 03:10:05;;;;;;;19.95;8.52;;;;;;;22.52;69.33;94170.06;5064480;28;20025;-83
2023/07/23 03:12:32;;;;;;;16.88;8.13;;;;;;;22.44;69.65;94161.88;5064806;28;20021;-83
2023/07/23 03:14:57;;;;;;;18.17;8.05;;;;;;;22.43;69.84;94154.13;5065426;28;20031;-83
2023/07/23 03:17:23;;;;;;;19.27;7.72;;;;;;;22.43;69.18;94167.69;5065328;28;20123;-83
2023/07/23 03:19:49;;;;;;;21.25;8.13;;;;;;;22.40;68.94;94158.34;5065078;28;20045;-83
2023/07/23 03:22:14;;;;;;;19.95;7.85;;;;;;;22.42;67.75;94157.97;5063993;28;20189;-83
2023/07/23 03:24:40;;;;;;;23.85;8.60;;;;;;;22.41;67.89;94159.94;5065051;28;20211;-83
2023/07/23 03:27:05;;;;;;;23.35;8.90;;;;;;;22.37;68.30;94166.50;5064972;28;20036;-83
2023/07/23 03:29:31;;;;;;;19.00;8.02;;;;;;;22.43;67.05;94154.91;5064924;28;20330;-83
2023/07/23 03:31:56;;;;;;;20.90;7.90;;;;;;;22.49;66.15;94158.03;5065019;28;20019;-82
2023/07/23 03:34:22;;;;;;;17.60;8.40;;;;;;;22.61;65.65;94159.59;5065022;28;20032;-84
2023/07/23 03:36:47;;;;;;;19.75;8.45;;;;;;;22.71;65.15;94149.94;5064857;28;20223;-83
2023/07/23 03:39:16;;;;;;;18.08;9.23;;;;;;;22.76;64.86;94155.78;5064911;28;20056;-83
2023/07/23 03:41:42;;;;;;;18.95;8.27;;;;;;;22.75;63.30;94150.72;5064679;28;20081;-83
2023/07/23 03:44:08;;;;;;;16.83;7.57;;;;;;;22.84;63.54;94157.38;5064821;28;20025;-82
2023/07/23 03:46:42;;;;;;;16.63;8.45;;;;;;;22.93;63.21;94154.28;5064665;28;20266;-82
2023/07/23 03:49:07;;;;;;;21.65;8.57;;;;;;;22.98;62.52;94161.28;5064473;28;20017;-83
2023/07/23 03:51:33;;;;;;;19.65;8.57;;;;;;;23.00;62.08;94165.19;5064494;28;20035;-83
2023/07/23 03:53:58;;;;;;;16.88;8.68;;;;;;;23.02;61.86;94162.88;5064274;28;20190;-83
2023/07/23 03:56:23;;;;;;;13.68;8.38;;;;;;;23.02;61.38;94167.56;5064702;28;20041;-82
2023/07/23 03:58:49;;;;;;;14.48;8.57;;;;;;;22.98;61.31;94167.50;5064449;28;20017;-83
2023/07/23 04:01:14;;;;;;;14.02;7.95;;;;;;;23.01;61.40;94171.38;5064416;28;20025;-83
2023/07/23 04:03:40;;;;;;;19.02;8.07;;;;;;;23.06;61.42;94173.78;5064308;28;20223;-82
2023/07/23 04:06:05;;;;;;;13.93;9.10;;;;;;;23.06;60.82;94167.53;5064231;28;20083;-82
2023/07/23 04:08:31;;;;;;;19.15;8.68;;;;;;;23.06;60.25;94168.34;5064226;28;20050;-82
2023/07/23 04:10:56;;;;;;;16.83;8.68;;;;;;;23.05;60.07;94166.75;5064339;28;20339;-82
2023/07/23 04:13:21;;;;;;;15.85;8.48;;;;;;;23.09;59.61;94169.50;5064155;28;20020;-83
2023/07/23 04:15:47;;;;;;;10.75;7.22;;;;;;;23.10;59.62;94171.84;5064255;28;20059;-82
2023/07/23 04:18:13;;;;;;;15.23;7.97;;;;;;;23.17;60.08;94165.63;5064261;28;20046;-83
2023/07/23 04:20:39;;;;;;;16.77;8.45;;;;;;;23.21;60.10;94169.13;5064283;28;20074;-82
2023/07/23 04:23:05;;;;;;;13.52;7.35;;;;;;;23.22;58.40;94170.66;5063367;28;20017;-82
2023/07/23 04:25:31;;;;;;;16.13;7.65;;;;;;;23.22;58.91;94167.94;5064257;28;20041;-82
2023/07/23 04:27:56;;;;;;;11.85;7.75;;;;;;;23.28;58.72;94158.25;5064135;28;20091;-82
2023/07/23 04:30:26;;;;;;;14.00;7.78;;;;;;;23.27;57.47;94167.59;5063743;28;20020;-83
2023/07/23 04:32:51;;;;;;;13.73;7.05;;;;;;;23.34;57.86;94170.31;5063799;28;20033;-84
2023/07/23 04:35:17;;;;;;;11.70;7.10;;;;;;;23.38;58.41;94168.34;5063837;28;20278;-85
2023/07/23 04:37:42;;;;;;;15.10;8.38;;;;;;;23.47;59.14;94167.19;5063643;28;20096;-83
2023/07/23 04:40:08;;;;;;;15.85;7.32;;;;;;;23.43;57.86;94176.16;5062530;28;20315;-81
2023/07/23 04:42:34;;;;;;;15.57;7.72;;;;;;;23.43;57.67;94178.88;5063805;28;20021;-83
2023/07/23 04:44:59;;;;;;;10.93;6.38;;;;;;;23.50;56.54;94180.03;5063546;28;20033;-83
2023/07/23 04:47:25;;;;;;;13.95;6.25;;;;;;;23.56;56.47;94173.03;5063577;28;20028;-83
2023/07/23 04:49:50;;;;;;;10.05;6.72;;;;;;;23.58;56.80;94176.94;5063199;28;20108;-82
2023/07/23 04:52:17;;;;;;;12.50;7.18;;;;;;;23.60;57.52;94174.59;5062292;28;20031;-82
2023/07/23 04:54:43;;;;;;;8.27;5.88;;;;;;;23.68;53.92;94180.06;5063596;28;20083;-82
2023/07/23 04:57:08;;;;;;;11.05;6.15;;;;;;;23.72;54.95;94173.44;5063375;28;20021;-82
2023/07/23 04:59:33;;;;;;;17.95;5.88;;;;;;;23.73;52.71;94177.72;5063355;28;20013;-83
2023/07/23 05:01:59;;;;;;;9.07;5.90;;;;;;;23.80;53.00;94182.41;5063293;28;20096;-83
2023/07/23 05:04:24;;;;;;;11.40;5.13;;;;;;;23.88;50.86;94183.19;5063608;28;20021;-83
2023/07/23 05:06:50;;;;;;;8.15;5.00;;;;;;;23.88;50.10;94175.78;5063381;28;20035;-82
2023/07/23 05:09:15;;;;;;;9.15;4.82;;;;;;;23.98;50.17;94176.97;5063219;28;20032;-83
2023/07/23 05:11:41;;;;;;;6.20;4.43;;;;;;;24.06;48.59;94183.94;5063718;28;20043;-84
2023/07/23 05:14:06;;;;;;;9.50;4.75;;;;;;;24.09;49.17;94185.09;5063405;28;20048;-84
2023/07/23 05:16:31;;;;;;;6.45;3.95;;;;;;;24.11;48.12;94180.81;5063314;28;20084;-84
2023/07/23 05:18:57;;;;;;;8.77;3.40;;;;;;;24.18;47.85;94186.25;5063564;28;20025;-83
2023/07/23 05:21:22;;;;;;;11.60;3.95;;;;;;;24.14;47.03;94185.50;5063274;28;20066;-85
2023/07/23 05:23:48;;;;;;;9.85;3.95;;;;;;;24.23;46.19;94179.63;5062590;28;20021;-85
2023/07/23 05:26:13;;;;;;;6.75;3.70;;;;;;;24.24;44.94;94189.34;5063603;28;20040;-85
2023/07/23 05:28:39;;;;;;;10.23;3.20;;;;;;;24.23;43.59;94179.63;5063701;28;20042;-85
2023/07/23 05:31:04;;;;;;;6.47;3.58;;;;;;;24.30;43.28;94187.78;5063285;28;20052;-84
2023/07/23 05:33:30;;;;;;;10.80;3.90;;;;;;;24.34;42.81;94185.84;5064020;28;20021;-85
2023/07/23 05:35:56;;;;;;;6.78;2.90;;;;;;;24.42;43.00;94189.28;5067586;28;20028;-85
2023/07/23 05:38:21;;;;;;;6.32;3.25;;;;;;;24.44;42.31;94178.78;5067585;28;20124;-85
2023/07/23 05:40:57;;;;;;;5.65;3.05;;;;;;;24.50;41.98;94185.41;5067437;28;20365;-84
2023/07/23 05:43:22;;;;;;;10.57;3.85;;;;;;;24.59;42.08;94193.97;5067585;28;20047;-85
2023/07/23 05:45:48;;;;;;;7.57;4.10;;;;;;;24.66;42.98;94184.97;5067369;28;20025;-86
2023/07/23 05:48:13;;;;;;;9.32;3.47;;;;;;;24.68;42.35;94187.31;5067478;28;20096;-85
2023/07/23 05:50:39;;;;;;;6.75;3.20;;;;;;;24.64;42.11;94187.31;5067385;28;20040;-85
2023/07/23 05:53:04;;;;;;;7.45;3.40;;;;;;;24.63;42.67;94185.78;5067738;28;20024;-85
2023/07/23 05:55:29;;;;;;;7.40;3.65;;;;;;;24.61;42.46;94191.63;5067173;28;20037;-84
2023/07/23 05:57:55;;;;;;;12.57;3.83;;;;;;;24.65;42.46;94185.38;5067122;28;20021;-84
2023/07/23 06:00:21;;;;;;;7.25;3.35;;;;;;;24.59;42.09;94202.13;5066885;28;20017;-85
2023/07/23 06:02:46;;;;;;;6.03;3.47;;;;;;;24.66;43.00;94197.81;5067208;28;20021;-85
2023/07/23 06:05:12;;;;;;;10.88;3.90;;;;;;;24.65;43.01;94190.81;5065967;28;20109;-84
2023/07/23 06:07:37;;;;;;;9.73;5.35;;;;;;;24.63;43.02;94211.06;5066994;28;20028;-84
2023/07/23 06:10:03;;;;;;;7.20;3.85;;;;;;;24.67;44.55;94200.16;5066843;28;20108;-84
2023/07/23 06:12:29;;;;;;;8.02;4.00;;;;;;;24.77;44.86;94191.16;5066455;28;20024;-85
2023/07/23 06:14:54;;;;;;;12.27;4.38;;;;;;;24.76;44.56;94197.00;5066976;28;20258;-84
2023/07/23 06:17:20;;;;;;;8.85;3.83;;;;;;;24.80;44.75;94186.88;5066794;28;20093;-84
2023/07/23 06:19:45;;;;;;;12.38;6.85;;;;;;;24.77;55.70;94182.19;5065625;28;20017;-85
2023/07/23 06:22:12;;;;;;;10.52;4.60;;;;;;;24.77;49.79;94190.38;5066715;28;20047;-84
2023/07/23 06:24:37;;;;;;;20.55;7.78;;;;;;;24.78;55.69;94194.66;5066475;28;20033;-85
2023/07/23 06:27:03;;;;;;;17.42;8.90;;;;;;;24.78;60.17;94194.66;5065216;28;20025;-82
2023/07/23 06:29:28;;;;;;;19.90;7.68;;;;;;;24.83;58.68;94191.50;5066498;28;20104;-84
2023/07/23 06:31:55;;;;;;;15.10;5.90;;;;;;;24.87;53.87;94183.31;5065120;28;20086;-81
2023/07/23 06:34:21;;;;;;;14.55;4.97;;;;;;;24.81;50.48;94193.84;5065114;28;20096;-80
2023/07/23 06:36:47;;;;;;;19.35;6.80;;;;;;;24.89;57.58;94189.94;5066344;28;20044;-82
2023/07/23 06:39:13;;;;;;;11.18;5.97;;;;;;;24.92;51.15;94196.56;5065804;28;20020;-80
2023/07/23 06:41:38;;;;;;;8.90;4.68;;;;;;;24.92;50.04;94186.41;5064537;28;20268;-82
2023/07/23 06:44:04;;;;;;;13.23;5.00;;;;;;;24.92;48.50;94197.31;5065570;28;20029;-80
2023/07/23 06:46:29;;;;;;;12.55;5.18;;;;;;;24.99;49.35;94188.34;5065064;28;20029;-79
2023/07/23 06:48:54;;;;;;;15.18;5.15;;;;;;;24.97;49.54;94191.47;5064348;28;20071;-81
2023/07/23 06:51:20;;;;;;;7.03;4.70;;;;;;;25.03;48.96;94184.44;5064192;28;20021;-80
2023/07/23 06:53:45;;;;;;;10.90;4.40;;;;;;;25.13;48.56;94192.94;5065100;28;20033;-81
2023/07/23 06:56:13;;;;;;;8.00;5.63;;;;;;;25.12;50.29;94186.72;5065369;28;20023;-81
2023/07/23 06:58:39;;;;;;;9.68;5.13;;;;;;;25.14;49.90;94198.00;5065497;28;20029;-81
2023/07/23 07:01:06;;;;;;;12.75;4.72;;;;;;;25.21;50.88;94189.03;5065319;28;20036;-80
2023/07/23 07:03:32;;;;;;;11.13;4.93;;;;;;;25.33;47.46;94185.84;5065092;28;20276;-82
2023/07/23 07:05:59;;;;;;;13.63;4.40;;;;;;;25.40;46.75;94187.72;5063570;28;20214;-80
2023/07/23 07:08:27;;;;;;;10.15;4.78;;;;;;;25.49;46.96;94195.50;5065164;28;20309;-81
2023/07/23 07:11:03;;;;;;;9.50;4.45;;;;;;;25.56;46.10;94204.38;5065074;28;20021;-81
2023/07/23 07:13:30;;;;;;;11.73;4.75;;;;;;;25.62;45.96;94204.75;5065076;28;20021;-81
2023/07/23 07:15:56;;;;;;;10.88;4.80;;;;;;;25.68;44.64;94189.47;5065214;28;20039;-81
2023/07/23 07:18:33;;;;;;;11.70;5.05;;;;;;;25.75;45.61;94194.13;5065077;28;20319;-80
2023/07/23 07:21:00;;;;;;;9.65;4.70;;;;;;;25.79;42.55;94217.50;5064711;28;20039;-80
2023/07/23 07:23:26;;;;;;;10.60;4.60;;;;;;;25.81;44.00;94195.25;5065075;28;20024;-82
2023/07/23 07:25:54;;;;;;;12.00;4.57;;;;;;;25.89;42.20;94204.13;5065232;28;20072;-81
2023/07/23 07:28:19;;;;;;;8.48;4.80;;;;;;;25.98;41.33;94202.53;5064896;28;20017;-81
2023/07/23 07:30:45;;;;;;;7.60;4.57;;;;;;;25.97;41.46;94200.19;5064990;28;20134;-82
2023/07/23 07:33:10;;;;;;;11.23;4.82;;;;;;;25.98;41.49;94199.03;5064613;28;20044;-81
2023/07/23 07:35:36;;;;;;;9.65;4.65;;;;;;;26.01;42.72;94203.69;5064795;28;20021;-80
2023/07/23 07:38:01;;;;;;;7.82;4.95;;;;;;;26.00;42.27;94199.41;5063627;28;20311;-79
2023/07/23 07:40:27;;;;;;;10.73;4.60;;;;;;;25.93;41.73;94211.16;5064469;28;20021;-79
2023/07/23 07:42:53;;;;;;;9.35;4.43;;;;;;;26.14;41.52;94199.28;5064699;28;20069;-80
2023/07/23 07:45:18;;;;;;;9.05;4.68;;;;;;;26.23;40.91;94207.75;5064613;28;20256;-82
2023/07/23 07:47:44;;;;;;;11.45;5.10;;;;;;;26.25;41.31;94192.94;5064676;28;20254;-84
2023/07/23 07:50:09;;;;;;;17.52;4.60;;;;;;;26.33;41.99;94191.69;5064660;28;20020;-83
2023/07/23 07:52:35;;;;;;;9.48;4.43;;;;;;;26.41;41.03;94190.41;5064551;28;20033;-85
2023/07/23 07:55:01;;;;;;;13.65;4.40;;;;;;;26.52;40.40;94206.69;5064090;28;20082;-84
2023/07/23 07:57:29;;;;;;;14.13;4.90;;;;;;;26.57;41.22;94187.13;5064020;28;20066;-85
2023/07/23 07:59:55;;;;;;;8.45;4.60;;;;;;;26.64;40.08;94194.50;5064702;28;20025;-84
2023/07/23 08:02:21;;;;;;;8.52;5.00;;;;;;;26.63;40.57;94184.75;5064373;28;20315;-85
2023/07/23 08:04:47;;;;;;;10.73;4.70;;;;;;;26.72;40.85;94199.47;5062957;28;20070;-89
2023/07/23 08:07:21;;;;;;;16.05;4.93;;;;;;;26.67;40.38;94191.72;5063502;28;20020;-82
2023/07/23 08:09:52;;;;;;;8.45;4.30;;;;;;;26.56;40.20;94186.38;5064403;28;20059;-76
2023/07/23 08:12:19;;;;;;;12.05;5.22;;;;;;;26.61;40.46;94190.63;5064232;28;20227;-82
2023/07/23 08:14:46;;;;;;;9.90;4.75;;;;;;;26.72;41.23;94193.22;5063757;28;20017;-80
2023/07/23 08:17:12;;;;;;;9.93;5.13;;;;;;;26.76;40.91;94193.97;5064281;28;20017;-87
2023/07/23 08:19:46;;;;;;;13.40;5.65;;;;;;;26.73;41.44;94195.56;5064185;28;20337;-79
2023/07/23 08:22:13;;;;;;;9.25;5.38;;;;;;;26.78;41.75;94200.56;5064080;28;20028;-84
2023/07/23 08:24:38;;;;;;;10.95;5.43;;;;;;;26.75;40.95;94203.38;5062917;28;20027;-81
2023/07/23 08:27:07;;;;;;;9.38;4.93;;;;;;;26.80;40.88;94194.69;5063029;28;20227;-82
2023/07/23 08:29:36;;;;;;;12.43;4.63;;;;;;;26.84;40.53;94192.69;5062934;28;20108;-83
2023/07/23 08:32:02;;;;;;;10.63;4.90;;;;;;;26.78;39.65;94199.81;5061291;28;20025;-82
2023/07/23 08:34:28;;;;;;;9.90;4.80;;;;;;;26.76;39.51;94188.50;5061362;28;20023;-82
2023/07/23 08:36:54;;;;;;;14.93;4.80;;;;;;;26.88;39.62;94196.16;5061823;28;20016;-81
2023/07/23 08:39:20;;;;;;;9.18;5.15;;;;;;;26.96;39.80;94189.41;5060724;28;20017;-81
2023/07/23 08:42:25;;;;;;;10.95;4.70;;;;;;;27.02;40.70;94185.03;5060890;28;20349;-82
2023/07/23 08:44:53;;;;;;;12.82;4.60;;;;;;;27.08;39.86;94192.81;5061515;28;20035;-81
2023/07/23 08:47:21;;;;;;;12.80;5.13;;;;;;;27.14;39.43;94183.72;5061524;28;20272;-82
2023/07/23 08:49:47;;;;;;;11.13;5.72;;;;;;;27.18;39.47;94189.91;5060362;28;20054;-81
2023/07/23 08:52:13;;;;;;;13.23;4.90;;;;;;;27.13;39.49;94190.38;5059930;28;20247;-81
2023/07/23 08:54:42;;;;;;;9.57;5.07;;;;;;;27.10;39.58;94184.97;5061043;28;20028;-81
2023/07/23 08:57:08;;;;;;;17.13;5.40;;;;;;;27.05;40.47;94188.94;5061442;28;20025;-81
2023/07/23 08:59:35;;;;;;;9.77;4.80;;;;;;;27.18;40.01;94191.88;5061433;28;20029;-81
2023/07/23 09:02:02;;;;;;;9.90;4.97;;;;;;;27.26;39.21;94192.59;5060519;28;20055;-81
2023/07/23 09:04:28;;;;;;;13.45;5.15;;;;;;;27.10;39.70;94190.44;5062456;28;20020;-81
2023/07/23 09:06:56;;;;;;;7.72;4.72;;;;;;;27.12;39.93;94188.06;5061259;28;20025;-82
2023/07/23 09:09:22;;;;;;;9.38;5.15;;;;;;;27.18;40.87;94180.94;5062430;28;20025;-82
2023/07/23 09:11:48;;;;;;;9.30;5.25;;;;;;;27.27;40.25;94180.44;5062297;28;20444;-81
2023/07/23 09:14:15;;;;;;;8.95;5.03;;;;;;;27.45;39.72;94189.19;5062198;28;20033;-82
2023/07/23 09:16:43;;;;;;;10.27;5.43;;;;;;;27.51;38.98;94194.97;5062391;28;20017;-82
2023/07/23 09:19:10;;;;;;;8.27;5.07;;;;;;;27.49;39.30;94189.91;5062069;28;20025;-82
2023/07/23 09:21:37;;;;;;;9.80;4.88;;;;;;;27.50;39.54;94186.00;5062184;28;20021;-82
2023/07/23 09:24:06;;;;;;;15.68;5.45;;;;;;;27.61;39.00;94185.81;5060790;28;20105;-82
2023/07/23 09:26:32;;;;;;;12.02;5.88;;;;;;;27.60;39.20;94195.22;5062071;28;20227;-82
2023/07/23 09:28:59;;;;;;;9.95;5.25;;;;;;;27.61;38.25;94194.78;5060979;28;20031;-82
2023/07/23 09:31:31;;;;;;;12.07;5.40;;;;;;;27.66;38.32;94204.53;5062157;28;20336;-81
2023/07/23 09:33:58;;;;;;;;;;;;;;;27.70;38.29;94194.28;5062382;28;20036;-81
2023/07/23 09:36:25;;;;;;;12.90;5.25;;;;;;;27.71;38.68;94181.38;5062045;28;19905;-82
2023/07/23 09:38:58;;;;;;;14.25;6.38;;;;;;;27.93;38.37;94181.84;5061871;28;20092;-82
2023/07/23 09:41:29;;;;;;;13.20;6.82;;;;;;;27.93;37.47;94188.06;5062091;28;20026;-82
2023/07/23 09:43:57;;;;;;;12.85;5.82;;;;;;;27.97;37.01;94182.53;5061962;28;20029;-82
2023/07/23 09:46:25;;;;;;;13.63;5.43;;;;;;;28.04;37.24;94185.16;5061951;28;20036;-82
2023/07/23 09:48:51;;;;;;;13.80;6.30;;;;;;;27.93;36.50;94179.09;5061816;28;20028;-82
2023/07/23 09:51:16;;;;;;;9.65;5.35;;;;;;;28.02;36.48;94180.09;5061708;28;20092;-82
2023/07/23 09:53:45;;;;;;;16.48;5.97;;;;;;;28.16;36.54;94178.28;5018113;28;1249332;-82
2023/07/23 09:56:15;;;;;;;12.48;6.38;;;;;;;28.23;36.58;94183.66;5062999;28;20203;-82
2023/07/23 09:58:43;;;;;;;11.45;6.35;;;;;;;28.39;35.94;94172.00;5062708;28;20036;-82
2023/07/23 10:01:09;;;;;;;10.15;6.15;;;;;;;28.37;36.07;94175.19;5062877;28;20350;-82
2023/07/23 10:03:36;;;;;;;16.17;5.88;;;;;;;28.53;35.93;94174.50;5062334;28;20021;-82
2023/07/23 10:06:02;;;;;;;14.85;6.45;;;;;;;28.64;35.48;94176.25;5062594;28;20029;-82
2023/07/23 10:08:30;;;;;;;16.23;6.20;;;;;;;28.69;35.42;94165.59;5062520;28;20017;-82
2023/07/23 10:10:56;;;;;;;18.77;6.55;;;;;;;28.65;35.07;94175.09;5062778;28;20272;-82
2023/07/23 10:13:22;;;;;;;12.10;6.63;;;;;;;28.68;33.52;94176.97;5062368;28;20017;-82
2023/07/23 10:15:49;;;;;;;12.73;6.60;;;;;;;28.69;32.72;94173.03;5062413;28;20013;-82
2023/07/23 10:18:16;;;;;;;16.83;5.95;;;;;;;28.67;32.54;94172.69;5062544;28;20028;-82
2023/07/23 10:20:44;;;;;;;12.10;6.45;;;;;;;28.69;32.46;94182.03;5064436;28;20028;-82
2023/07/23 10:23:10;;;;;;;21.95;6.90;;;;;;;28.65;32.09;94169.59;5066115;28;20033;-82
2023/07/23 10:25:35;;;;;;;15.70;5.68;;;;;;;28.64;33.30;94166.09;5066076;28;20260;-82
2023/07/23 10:28:05;;;;;;;13.07;6.85;;;;;;;28.71;33.63;94152.22;5066095;28;20031;-82
2023/07/23 10:30:33;;;;;;;15.70;6.10;;;;;;;28.84;33.05;94200.94;5066028;28;20033;-82
2023/07/23 10:33:11;;;;;;;19.23;7.50;;;;;;;28.79;32.46;94155.59;5066026;28;20025;-82
2023/07/23 10:35:52;;;;;;;13.27;6.90;;;;;;;28.83;32.66;94161.03;5065806;28;20028;-79
2023/07/23 10:38:24;;;;;;;15.48;7.00;;;;;;;28.84;33.44;94157.81;5065886;28;20024;-82
2023/07/23 10:40:50;;;;;;;14.88;7.63;;;;;;;28.81;31.90;94162.19;5065802;28;20123;-82
2023/07/23 10:43:16;;;;;;;17.23;7.97;;;;;;;28.94;33.10;94153.31;5065695;28;20322;-82
2023/07/23 10:45:48;;;;;;;14.18;7.13;;;;;;;29.09;32.69;94167.53;5065557;28;20033;-81
2023/07/23 10:48:17;;;;;;;17.80;8.05;;;;;;;29.04;31.78;94159.78;5065790;28;20055;-82
2023/07/23 10:51:00;;;;;;;13.77;7.95;;;;;;;29.05;31.72;94161.34;5065637;28;20020;-82
2023/07/23 10:53:30;;;;;;;12.63;7.45;;;;;;;29.13;31.77;94144.31;5065661;28;20057;-82
2023/07/23 10:55:59;;;;;;;13.55;8.02;;;;;;;29.23;31.08;94145.28;5065813;28;20309;-82
2023/07/23 10:58:26;;;;;;;15.70;7.80;;;;;;;29.19;30.57;94153.59;5065565;28;20066;-82
2023/07/23 11:00:56;;;;;;;27.63;9.13;;;;;;;29.22;32.25;94162.94;5064644;28;20020;-82
2023/07/23 11:03:23;;;;;;;19.00;8.10;;;;;;;29.26;29.94;94162.88;5065384;28;20032;-82
2023/07/23 11:05:51;;;;;;;22.50;7.90;;;;;;;29.26;30.42;94149.91;5065344;28;20029;-82
2023/07/23 11:08:28;;;;;;;19.20;8.10;;;;;;;29.28;30.81;94163.97;5065331;28;20044;-82
2023/07/23 11:10:58;;;;;;;14.30;7.97;;;;;;;29.23;30.74;94163.72;5064107;28;20025;-82
2023/07/23 11:13:43;;;;;;;19.60;8.32;;;;;;;29.18;30.71;94148.53;5065624;28;20088;-82
2023/07/23 11:16:08;;;;;;;20.35;8.55;;;;;;;29.31;31.14;94157.66;5065291;28;20051;-82
2023/07/23 11:18:34;;;;;;;17.35;7.75;;;;;;;29.35;30.86;94163.03;5064825;28;20029;-82
2023/07/23 11:21:04;;;;;;;14.57;8.52;;;;;;;29.42;31.61;94154.66;5065241;28;20025;-82
2023/07/23 11:23:31;;;;;;;14.52;8.63;;;;;;;29.40;30.17;94152.34;5065116;28;20094;-82